Saga III — VJN4194 — position and weather

sailwx.info

Track history (hours):
 
Tides and Currents Weather Stations Pressure Air Temp Water Temp Dewpoint Dewpoint Depression Visibility Wind Speed Wind Dir Waves Ship Positions

Saga III

Last reported at 2018-Mar-04 00:14 UTC. Time now 2018-Apr-25 02:53 UTC.
Position S 28°28' E 153°38'.
Warning: this ship's position is 52 days out of date.

Length 14 m.

Type: Sailing vessel. MMSI: 503759800.

Date/timePositionNaut miles runAvg speedWind from/ knotsBaromVisibWave heightAir tempDewpointWater temp
2018-Mar-04 00:14S 28°28' E 153°38'1 6.0
2018-Mar-04 00:00S 28°27' E 153°38'3 6.0
2018-Mar-03 23:28S 28°24' E 153°37'3 6.5
2018-Mar-03 23:00S 28°21' E 153°37'3 6.6
2018-Mar-03 22:30S 28°17' E 153°36'3 6.3
2018-Mar-03 22:00S 28°14' E 153°36'3 6.7
2018-Mar-03 21:30S 28°11' E 153°35'3 6.6
2018-Mar-03 21:00S 28°08' E 153°34'3 6.7
2018-Mar-03 20:30S 28°05' E 153°33'10 6.7
2018-Mar-03 19:01S 27°56' E 153°27'1 5.8
2018-Mar-03 18:53S 27°56' E 153°26'2 5.1
2018-Mar-03 18:30S 27°58' E 153°25'0 0.0
2018-Mar-02 04:08S 27°58' E 153°25'0 2.9
2018-Mar-02 04:00S 27°57' E 153°25'2 3.8
2018-Mar-02 03:26S 27°55' E 153°25'3 6.4
2018-Mar-02 03:00S 27°53' E 153°25'3 6.2
2018-Mar-02 02:29S 27°49' E 153°24'2 3.2
2018-Mar-02 02:00S 27°48' E 153°25'0 0.0
2018-Mar-02 01:30S 27°48' E 153°25'0 0.0
2018-Mar-02 01:00S 27°48' E 153°25'0 0.0
2018-Mar-02 00:30S 27°48' E 153°25'1 2.1
2018-Mar-02 00:00S 27°47' E 153°24'2 4.0
2018-Mar-01 23:30S 27°46' E 153°22'2 4.6
2018-Mar-01 22:59S 27°44' E 153°21'2 4.6
2018-Mar-01 22:30S 27°42' E 153°22'3 5.6
2018-Mar-01 22:00S 27°39' E 153°21'4 4.4
2018-Mar-01 21:02S 27°35' E 153°20'0 5.5
2018-Mar-01 21:00S 27°35' E 153°20'0 0.1
2018-Mar-01 20:21S 27°35' E 153°20'0 0.0
2018-Mar-01 19:51S 27°35' E 153°20'0 0.0
2018-Mar-01 19:21S 27°35' E 153°20'0 0.0
2018-Mar-01 17:18S 27°35' E 153°20'0 0.0
2018-Mar-01 16:48S 27°35' E 153°20'0 0.0
2018-Mar-01 16:30S 27°35' E 153°20'0 0.0
2018-Mar-01 16:00S 27°35' E 153°20'0 0.0
2018-Mar-01 15:27S 27°35' E 153°20'0 0.0
2018-Mar-01 14:45S 27°35' E 153°20'0 0.0
2018-Mar-01 14:15S 27°35' E 153°20'0 0.0
2018-Mar-01 12:04S 27°35' E 153°20'0 0.0
2018-Mar-01 11:46S 27°35' E 153°20'0 0.0
2018-Mar-01 11:22S 27°35' E 153°20'0 0.0
2018-Mar-01 11:01S 27°35' E 153°20'0 0.0
2018-Mar-01 10:28S 27°35' E 153°20'0 0.0
2018-Mar-01 09:49S 27°35' E 153°20'0 0.0
2018-Mar-01 09:28S 27°35' E 153°20'0 0.0
2018-Mar-01 08:55S 27°35' E 153°20'0 0.0
2018-Mar-01 08:28S 27°35' E 153°20'0 0.0
2018-Mar-01 07:58S 27°35' E 153°20'0 0.0
2018-Mar-01 07:28S 27°35' E 153°20'0 0.0
2018-Mar-01 06:46S 27°35' E 153°20'0 0.0
2018-Mar-01 03:01S 27°35' E 153°20'0 3.6
2018-Mar-01 03:00S 27°35' E 153°20'21 4.8
2018-Feb-28 22:44S 27°16' E 153°11'1 5.3
2018-Feb-28 22:29S 27°15' E 153°10'3 5.6
2018-Feb-28 22:00S 27°12' E 153°09'2 4.5
2018-Feb-28 21:30S 27°11' E 153°06'0 0.7
2018-Feb-28 20:58S 27°12' E 153°06'0 0.0
2018-Feb-28 20:28S 27°12' E 153°06'0 0.0
2018-Feb-28 19:58S 27°12' E 153°06'0 0.0
2018-Feb-28 19:28S 27°12' E 153°06'0 0.0
2018-Feb-28 18:58S 27°12' E 153°06'0 0.0
2018-Feb-28 18:28S 27°12' E 153°06'0 0.0
2018-Feb-28 17:58S 27°12' E 153°06'0 0.0
2018-Feb-28 17:28S 27°12' E 153°06'0 0.0
2018-Feb-28 16:58S 27°12' E 153°06'0 0.0
2018-Feb-28 16:28S 27°12' E 153°06'0 0.0
2018-Feb-28 15:58S 27°12' E 153°06'0 0.0
2018-Feb-28 15:28S 27°12' E 153°06'0 0.0
2018-Feb-28 14:58S 27°12' E 153°06'0 0.0
2018-Feb-28 14:28S 27°12' E 153°06'0 0.0
2018-Feb-28 13:58S 27°12' E 153°06'0 0.0
2018-Feb-28 13:28S 27°12' E 153°06'0 0.0
2018-Feb-28 12:58S 27°12' E 153°06'0 0.0
2018-Feb-28 12:28S 27°12' E 153°06'0 0.0
2018-Feb-28 11:58S 27°12' E 153°06'0 0.0
2018-Feb-28 11:28S 27°12' E 153°06'0 0.0
2018-Feb-28 10:58S 27°12' E 153°06'0 0.1
2018-Feb-28 10:28S 27°12' E 153°06'0 0.1
2018-Feb-28 09:58S 27°12' E 153°06'0 0.0
2018-Feb-28 09:28S 27°12' E 153°06'0 0.0
2018-Feb-28 08:58S 27°12' E 153°06'0 0.0
2018-Feb-28 08:28S 27°12' E 153°06'0 0.0
2018-Feb-28 07:58S 27°12' E 153°06'0 0.0
2018-Feb-28 07:28S 27°12' E 153°06'0 0.0
2018-Feb-28 06:58S 27°12' E 153°06'0 0.0
2018-Feb-28 06:28S 27°12' E 153°06'0 0.0
2018-Feb-28 05:58S 27°12' E 153°06'0 0.0
2018-Feb-28 05:28S 27°12' E 153°06'0 0.0
2018-Feb-28 04:58S 27°12' E 153°06'0 0.0
2018-Feb-28 04:28S 27°12' E 153°06'0 0.0
2018-Feb-28 03:58S 27°12' E 153°06'0 0.0
2018-Feb-28 03:28S 27°12' E 153°06'0 0.0
2018-Feb-28 02:58S 27°12' E 153°06'0 0.0
2018-Feb-28 02:28S 27°12' E 153°06'0 0.0
2018-Feb-28 01:58S 27°12' E 153°06'0 0.0
2018-Feb-28 01:28S 27°12' E 153°06'0 0.0
2018-Feb-28 00:58S 27°12' E 153°06'0 0.0
2018-Feb-28 00:28S 27°12' E 153°06'0 0.0
2018-Feb-27 23:58S 27°12' E 153°06'0 0.0
2018-Feb-27 23:28S 27°12' E 153°06'0 0.0
2018-Feb-27 22:58S 27°12' E 153°06'0 0.0
2018-Feb-27 22:28S 27°12' E 153°06'0 0.0
2018-Feb-27 21:58S 27°12' E 153°06'0 0.1
2018-Feb-27 21:28S 27°12' E 153°06'0 0.1
2018-Feb-27 20:58S 27°12' E 153°06'0 0.0
2018-Feb-27 20:28S 27°12' E 153°06'0 0.0
2018-Feb-27 19:58S 27°12' E 153°06'0 0.0
2018-Feb-27 19:28S 27°12' E 153°06'0 0.0
2018-Feb-27 18:58S 27°12' E 153°06'0 0.0
2018-Feb-27 18:28S 27°12' E 153°06'0 0.0
2018-Feb-27 17:58S 27°12' E 153°06'0 0.0
2018-Feb-27 17:28S 27°12' E 153°06'0 0.0
2018-Feb-27 16:58S 27°12' E 153°06'0 0.0
2018-Feb-27 16:28S 27°12' E 153°06'0 0.0
2018-Feb-27 15:58S 27°12' E 153°06'0 0.0
2018-Feb-27 15:28S 27°12' E 153°06'0 0.0
2018-Feb-27 14:58S 27°12' E 153°06'0 0.0
2018-Feb-27 14:28S 27°12' E 153°06'0 0.0
2018-Feb-27 13:58S 27°12' E 153°06'0 0.0
2018-Feb-27 13:28S 27°12' E 153°06'0 0.0
2018-Feb-27 12:58S 27°12' E 153°06'0 0.0
2018-Feb-27 12:28S 27°12' E 153°06'0 0.0
2018-Feb-27 11:58S 27°12' E 153°06'0 0.0
2018-Feb-27 11:28S 27°12' E 153°06'0 0.0
2018-Feb-27 10:58S 27°12' E 153°06'0 0.0
2018-Feb-27 10:28S 27°12' E 153°06'0 0.0
2018-Feb-27 09:58S 27°12' E 153°06'0 0.0
2018-Feb-27 09:28S 27°12' E 153°06'0 0.0
2018-Feb-27 08:58S 27°12' E 153°06'0 0.0
2018-Feb-27 08:28S 27°12' E 153°06'0 0.0
2018-Feb-27 07:58S 27°12' E 153°06'0 0.0
2018-Feb-27 07:28S 27°12' E 153°06'0 0.0
2018-Feb-27 06:58S 27°12' E 153°06'0 0.0
2018-Feb-27 06:28S 27°12' E 153°06'0 0.0
2018-Feb-27 05:55S 27°12' E 153°06'0 0.0
2018-Feb-27 05:28S 27°12' E 153°06'0 0.0
2018-Feb-27 04:58S 27°12' E 153°06'0 0.0
2018-Feb-27 04:28S 27°12' E 153°06'0 0.0
2018-Feb-27 03:58S 27°12' E 153°06'0 0.0
2018-Feb-27 03:28S 27°12' E 153°06'0 0.0
2018-Feb-27 02:58S 27°12' E 153°06'0 0.0
2018-Feb-27 02:28S 27°12' E 153°06'0 0.0
2018-Feb-27 01:58S 27°12' E 153°06'0 0.0
2018-Feb-27 01:28S 27°12' E 153°06'0 0.0
2018-Feb-27 00:58S 27°12' E 153°06'0 0.0
2018-Feb-27 00:28S 27°12' E 153°06'0 0.0
2018-Feb-26 23:58S 27°12' E 153°06'0 0.0
2018-Feb-26 23:28S 27°12' E 153°06'0 0.0
2018-Feb-26 22:58S 27°12' E 153°06'0 0.0
2018-Feb-26 22:28S 27°12' E 153°06'0 0.0
2018-Feb-26 21:58S 27°12' E 153°06'0 0.0
2018-Feb-26 21:28S 27°12' E 153°06'0 0.0
2018-Feb-26 20:58S 27°12' E 153°06'0 0.0
2018-Feb-26 20:28S 27°12' E 153°06'0 0.0
2018-Feb-26 19:58S 27°12' E 153°06'0 0.0
2018-Feb-26 19:28S 27°12' E 153°06'0 0.0
2018-Feb-26 18:58S 27°12' E 153°06'0 0.0
2018-Feb-26 18:28S 27°12' E 153°06'0 0.0
2018-Feb-26 17:58S 27°12' E 153°06'0 0.0
2018-Feb-26 17:28S 27°12' E 153°06'0 0.0
2018-Feb-26 16:58S 27°12' E 153°06'0 0.0
2018-Feb-26 16:22S 27°12' E 153°06'0 0.0
2018-Feb-26 15:58S 27°12' E 153°06'0 0.0
2018-Feb-26 15:29S 27°12' E 153°06'0 0.0
2018-Feb-26 14:58S 27°12' E 153°06'0 0.0
2018-Feb-26 14:28S 27°12' E 153°06'0 0.0
2018-Feb-26 13:58S 27°12' E 153°06'0 0.0
2018-Feb-26 13:29S 27°12' E 153°06'0 0.0
2018-Feb-26 12:55S 27°12' E 153°06'0 0.0
2018-Feb-26 12:28S 27°12' E 153°06'0 0.0
2018-Feb-26 11:55S 27°12' E 153°06'0 0.0
2018-Feb-26 11:25S 27°12' E 153°06'0 0.0
2018-Feb-26 10:16S 27°12' E 153°06'0 0.0
2018-Feb-26 09:53S 27°12' E 153°06'0 0.0
2018-Feb-26 08:17S 27°12' E 153°06'0 0.0
2018-Feb-26 07:56S 27°12' E 153°06'0 0.0
2018-Feb-26 07:17S 27°12' E 153°06'0 0.0
2018-Feb-26 06:59S 27°12' E 153°06'0 0.0
2018-Feb-26 06:23S 27°12' E 153°06'0 0.0
2018-Feb-26 05:59S 27°12' E 153°06'0 0.0
2018-Feb-26 05:29S 27°12' E 153°06'0 0.0
2018-Feb-26 04:59S 27°12' E 153°06'0 0.0
2018-Feb-26 04:29S 27°12' E 153°06'0 0.0
2018-Feb-26 03:56S 27°12' E 153°06'0 0.0
2018-Feb-26 03:29S 27°12' E 153°06'0 0.0
2018-Feb-26 02:59S 27°12' E 153°06'0 0.0
2018-Feb-26 02:29S 27°12' E 153°06'0 0.0
2018-Feb-26 01:59S 27°12' E 153°06'0 0.0
2018-Feb-26 01:29S 27°12' E 153°06'0 0.0
2018-Feb-26 00:56S 27°12' E 153°06'0 0.0
2018-Feb-26 00:23S 27°12' E 153°06'0 0.0
2018-Feb-25 23:32S 27°12' E 153°06'0 0.0
2018-Feb-25 23:29S 27°12' E 153°06'0 0.0
2018-Feb-25 22:53S 27°12' E 153°06'0 0.0
2018-Feb-25 22:26S 27°12' E 153°06'0 0.0
2018-Feb-25 21:53S 27°12' E 153°06'0 0.0
2018-Feb-25 21:14S 27°12' E 153°06'0 0.0
2018-Feb-25 20:56S 27°12' E 153°06'0 0.0
2018-Feb-25 20:05S 27°12' E 153°06'0 0.0
2018-Feb-25 19:59S 27°12' E 153°06'0 0.0
2018-Feb-25 19:29S 27°12' E 153°06'0 0.0
2018-Feb-25 18:59S 27°12' E 153°06'0 0.0
2018-Feb-25 18:29S 27°12' E 153°06'0 0.0
2018-Feb-25 17:59S 27°12' E 153°06'0 0.0
2018-Feb-25 17:29S 27°12' E 153°06'0 0.0
2018-Feb-25 16:59S 27°12' E 153°06'0 0.0
2018-Feb-25 16:29S 27°12' E 153°06'0 0.0
2018-Feb-25 15:59S 27°12' E 153°06'0 0.0
2018-Feb-25 15:29S 27°12' E 153°06'0 0.0
2018-Feb-25 14:59S 27°12' E 153°06'0 0.0
2018-Feb-25 14:29S 27°12' E 153°06'0 0.0
2018-Feb-25 13:59S 27°12' E 153°06'0 0.0
2018-Feb-25 13:29S 27°12' E 153°06'0 0.0
2018-Feb-25 12:59S 27°12' E 153°06'0 0.1
2018-Feb-25 12:29S 27°12' E 153°06'0 0.1
2018-Feb-25 11:59S 27°12' E 153°06'0 0.0
2018-Feb-25 11:29S 27°12' E 153°06'0 0.0
2018-Feb-25 10:59S 27°12' E 153°06'0 0.0
2018-Feb-25 10:29S 27°12' E 153°06'0 0.0
2018-Feb-25 09:59S 27°12' E 153°06'0 0.0
2018-Feb-25 09:29S 27°12' E 153°06'0 0.0
2018-Feb-25 08:59S 27°12' E 153°06'0 0.0
2018-Feb-25 08:29S 27°12' E 153°06'0 0.0
2018-Feb-25 07:59S 27°12' E 153°06'0 0.0
2018-Feb-25 07:29S 27°12' E 153°06'0 0.0
2018-Feb-25 06:59S 27°12' E 153°06'0 0.0
2018-Feb-25 06:29S 27°12' E 153°06'0 0.0
2018-Feb-25 05:59S 27°12' E 153°06'0 0.0
2018-Feb-25 05:29S 27°12' E 153°06'0 0.0
2018-Feb-25 04:59S 27°12' E 153°06'0 0.0
2018-Feb-25 04:29S 27°12' E 153°06'0 0.0
2018-Feb-25 03:59S 27°12' E 153°06'0 0.0
2018-Feb-25 03:29S 27°12' E 153°06'0 0.0
2018-Feb-25 02:59S 27°12' E 153°06'0 0.0
2018-Feb-25 02:29S 27°12' E 153°06'0 0.0
2018-Feb-25 01:59S 27°12' E 153°06'0 0.0
2018-Feb-25 01:29S 27°12' E 153°06'0 0.0
2018-Feb-25 00:59S 27°12' E 153°06'0 0.0
2018-Feb-25 00:29S 27°12' E 153°06'0 0.0
2018-Feb-24 23:59S 27°12' E 153°06'0 0.0
2018-Feb-24 23:29S 27°12' E 153°06'0 0.0
2018-Feb-24 22:59S 27°12' E 153°06'0 0.0
2018-Feb-24 22:29S 27°12' E 153°06'0 0.0
2018-Feb-24 21:59S 27°12' E 153°06'0 0.0
2018-Feb-24 21:29S 27°12' E 153°06'0 0.0
2018-Feb-24 20:59S 27°12' E 153°06'0 0.0
2018-Feb-24 20:29S 27°12' E 153°06'0 0.0
2018-Feb-24 19:59S 27°12' E 153°06'0 0.0
2018-Feb-24 19:29S 27°12' E 153°06'0 0.0
2018-Feb-24 18:59S 27°12' E 153°06'0 0.0
2018-Feb-24 18:29S 27°12' E 153°06'0 0.0
2018-Feb-24 17:59S 27°12' E 153°06'0 0.0
2018-Feb-24 17:29S 27°12' E 153°06'0 0.0
2018-Feb-24 16:59S 27°12' E 153°06'0 0.0
2018-Feb-24 16:29S 27°12' E 153°06'0 0.0
2018-Feb-24 15:59S 27°12' E 153°06'0 0.0
2018-Feb-24 15:29S 27°12' E 153°06'0 0.0
2018-Feb-24 14:59S 27°12' E 153°06'0 0.0
2018-Feb-24 14:29S 27°12' E 153°06'0 0.0
2018-Feb-24 13:59S 27°12' E 153°06'0 0.0
2018-Feb-24 13:29S 27°12' E 153°06'0 0.0
2018-Feb-24 12:59S 27°12' E 153°06'0 0.0
2018-Feb-24 12:29S 27°12' E 153°06'0 0.0
2018-Feb-24 11:59S 27°12' E 153°06'0 0.0
2018-Feb-24 11:29S 27°12' E 153°06'0 0.0
2018-Feb-24 10:59S 27°12' E 153°06'0 0.0
2018-Feb-24 10:29S 27°12' E 153°06'0 0.0
2018-Feb-24 09:59S 27°12' E 153°06'0 0.0
2018-Feb-24 09:29S 27°12' E 153°06'0 0.0
2018-Feb-24 08:59S 27°12' E 153°06'0 0.0
2018-Feb-24 08:29S 27°12' E 153°06'0 0.0
2018-Feb-24 07:59S 27°12' E 153°06'0 0.0
2018-Feb-24 07:29S 27°12' E 153°06'0 0.0
2018-Feb-24 06:59S 27°12' E 153°06'0 0.0
2018-Feb-24 06:29S 27°12' E 153°06'0 0.0
2018-Feb-24 05:59S 27°12' E 153°06'0 0.0
2018-Feb-24 05:29S 27°12' E 153°06'0 0.0
2018-Feb-24 04:59S 27°12' E 153°06'0 0.0
2018-Feb-24 02:53S 27°12' E 153°06'0 0.0
2018-Feb-24 02:29S 27°12' E 153°06'0 0.0
2018-Feb-24 01:59S 27°12' E 153°06'0 0.0
2018-Feb-24 01:29S 27°12' E 153°06'0 0.0
2018-Feb-24 00:59S 27°12' E 153°06'0 0.0
2018-Feb-24 00:29S 27°12' E 153°06'0 0.0
2018-Feb-23 23:59S 27°12' E 153°06'0 0.0
2018-Feb-23 23:29S 27°12' E 153°06'0 0.0
2018-Feb-23 22:59S 27°12' E 153°06'0 0.0
2018-Feb-23 22:29S 27°12' E 153°06'0 0.0
2018-Feb-23 21:59S 27°12' E 153°06'0 0.0
2018-Feb-23 21:23S 27°12' E 153°06'0 0.0
2018-Feb-23 20:59S 27°12' E 153°06'0 0.0
2018-Feb-23 20:29S 27°12' E 153°06'0 0.0
2018-Feb-23 18:59S 27°12' E 153°06'0 0.0
2018-Feb-23 18:29S 27°12' E 153°06'0 0.0
2018-Feb-23 17:59S 27°12' E 153°06'0 0.0
2018-Feb-23 17:29S 27°12' E 153°06'0 0.0
2018-Feb-23 16:59S 27°12' E 153°06'0 0.0
2018-Feb-23 16:26S 27°12' E 153°06'0 0.0
2018-Feb-23 15:59S 27°12' E 153°06'0 0.0
2018-Feb-23 15:29S 27°12' E 153°06'0 0.0
2018-Feb-23 14:59S 27°12' E 153°06'0 0.0
2018-Feb-23 14:29S 27°12' E 153°06'0 0.0
2018-Feb-23 13:59S 27°12' E 153°06'0 0.0
2018-Feb-23 13:29S 27°12' E 153°06'0 0.0
2018-Feb-23 12:59S 27°12' E 153°06'0 0.0
2018-Feb-23 12:23S 27°12' E 153°06'0 0.0
2018-Feb-23 11:59S 27°12' E 153°06'0 0.0
2018-Feb-23 11:29S 27°12' E 153°06'0 0.0
2018-Feb-23 10:59S 27°12' E 153°06'0 0.0
2018-Feb-23 10:29S 27°12' E 153°06'0 0.0
2018-Feb-23 09:59S 27°12' E 153°06'0 0.0
2018-Feb-23 09:29S 27°12' E 153°06'0 0.0
2018-Feb-23 08:59S 27°12' E 153°06'0 0.0
2018-Feb-23 08:29S 27°12' E 153°06'0 0.0
2018-Feb-23 07:59S 27°12' E 153°06'0 0.0
2018-Feb-23 07:29S 27°12' E 153°06'0 0.0
2018-Feb-23 06:59S 27°12' E 153°06'0 0.0
2018-Feb-23 06:29S 27°12' E 153°06'0 0.0
2018-Feb-23 05:59S 27°12' E 153°06'0 0.0
2018-Feb-23 05:29S 27°12' E 153°06'0 0.0
2018-Feb-23 04:59S 27°12' E 153°06'0 0.0
2018-Feb-23 04:29S 27°12' E 153°06'0 0.0
2018-Feb-23 03:59S 27°12' E 153°06'0 0.0
2018-Feb-23 03:29S 27°12' E 153°06'0 0.0
2018-Feb-23 02:59S 27°12' E 153°06'0 0.0
2018-Feb-23 02:29S 27°12' E 153°06'0 0.0
2018-Feb-23 01:56S 27°12' E 153°06'0 0.0
2018-Feb-23 01:29S 27°12' E 153°06'0 0.0
2018-Feb-23 00:59S 27°12' E 153°06'0 0.0
2018-Feb-23 00:29S 27°12' E 153°06'0 0.0
2018-Feb-22 23:53S 27°12' E 153°06'0 0.0
2018-Feb-22 23:26S 27°12' E 153°06'0 0.0
2018-Feb-22 22:59S 27°12' E 153°06'0 0.0
2018-Feb-22 22:29S 27°12' E 153°06'0 0.0
2018-Feb-22 21:59S 27°12' E 153°06'0 0.0
2018-Feb-22 20:38S 27°12' E 153°06'0 0.0
2018-Feb-22 20:29S 27°12' E 153°06'0 0.0
2018-Feb-22 19:56S 27°12' E 153°06'0 0.0
2018-Feb-22 19:26S 27°12' E 153°06'0 0.0
2018-Feb-22 18:59S 27°12' E 153°06'0 0.0
2018-Feb-22 18:26S 27°12' E 153°06'0 0.0
2018-Feb-22 17:47S 27°12' E 153°06'0 0.0
2018-Feb-22 17:20S 27°12' E 153°06'0 0.0
2018-Feb-22 16:59S 27°12' E 153°06'0 0.0
2018-Feb-22 16:29S 27°12' E 153°06'0 0.0
2018-Feb-22 15:59S 27°12' E 153°06'0 0.0
2018-Feb-22 15:26S 27°12' E 153°06'0 0.0
2018-Feb-22 14:59S 27°12' E 153°06'0 0.0
2018-Feb-22 14:29S 27°12' E 153°06'0 0.0
2018-Feb-22 13:59S 27°12' E 153°06'0 0.0
2018-Feb-22 13:29S 27°12' E 153°06'0 0.0
2018-Feb-22 12:59S 27°12' E 153°06'0 0.0
2018-Feb-22 12:29S 27°12' E 153°06'0 0.0
2018-Feb-22 11:59S 27°12' E 153°06'0 0.0
2018-Feb-22 11:29S 27°12' E 153°06'0 0.0
2018-Feb-22 10:59S 27°12' E 153°06'0 0.0
2018-Feb-22 10:29S 27°12' E 153°06'0 0.0
2018-Feb-22 09:59S 27°12' E 153°06'0 0.0
2018-Feb-22 09:29S 27°12' E 153°06'0 0.0
2018-Feb-22 08:59S 27°12' E 153°06'0 0.0
2018-Feb-22 08:29S 27°12' E 153°06'0 0.0
2018-Feb-22 07:59S 27°12' E 153°06'0 0.0
2018-Feb-22 07:29S 27°12' E 153°06'0 0.0
2018-Feb-22 06:59S 27°12' E 153°06'0 0.0
2018-Feb-22 06:29S 27°12' E 153°06'0 0.0
2018-Feb-22 05:53S 27°12' E 153°06'0 0.0
2018-Feb-22 05:29S 27°12' E 153°06'0 0.0
2018-Feb-22 04:59S 27°12' E 153°06'0 0.0
2018-Feb-22 04:29S 27°12' E 153°06'0 0.0
2018-Feb-22 03:53S 27°12' E 153°06'0 0.0
2018-Feb-22 03:29S 27°12' E 153°06'0 0.0
2018-Feb-22 02:59S 27°12' E 153°06'0 0.0
2018-Feb-22 02:29S 27°12' E 153°06'0 0.0
2018-Feb-22 01:59S 27°12' E 153°06'0 0.0
2018-Feb-22 01:29S 27°12' E 153°06'0 0.0
2018-Feb-22 00:59S 27°12' E 153°06'0 0.0
2018-Feb-22 00:29S 27°12' E 153°06'  
Track history (hours):
 
Tides and Currents Weather Stations Pressure Air Temp Water Temp Dewpoint Dewpoint Depression Visibility Wind Speed Wind Dir Waves Ship Positions

Saga III

Last reported at 2018-Mar-04 00:14 UTC. Time now 2018-Apr-25 02:53 UTC.
Position S 28°28' E 153°38'.
Warning: this ship's position is 52 days out of date.

Length 14 m.

Type: Sailing vessel. MMSI: 503759800.

Date/timePositionNaut miles runAvg speedWind from/ knotsBaromVisibWave heightAir tempDewpointWater temp
2018-Mar-04 00:14S 28°28' E 153°38'1 6.0
2018-Mar-04 00:00S 28°27' E 153°38'3 6.0
2018-Mar-03 23:28S 28°24' E 153°37'3 6.5
2018-Mar-03 23:00S 28°21' E 153°37'3 6.6
2018-Mar-03 22:30S 28°17' E 153°36'3 6.3
2018-Mar-03 22:00S 28°14' E 153°36'3 6.7
2018-Mar-03 21:30S 28°11' E 153°35'3 6.6
2018-Mar-03 21:00S 28°08' E 153°34'3 6.7
2018-Mar-03 20:30S 28°05' E 153°33'10 6.7
2018-Mar-03 19:01S 27°56' E 153°27'1 5.8
2018-Mar-03 18:53S 27°56' E 153°26'2 5.1
2018-Mar-03 18:30S 27°58' E 153°25'0 0.0
2018-Mar-02 04:08S 27°58' E 153°25'0 2.9
2018-Mar-02 04:00S 27°57' E 153°25'2 3.8
2018-Mar-02 03:26S 27°55' E 153°25'3 6.4
2018-Mar-02 03:00S 27°53' E 153°25'3 6.2
2018-Mar-02 02:29S 27°49' E 153°24'2 3.2
2018-Mar-02 02:00S 27°48' E 153°25'0 0.0
2018-Mar-02 01:30S 27°48' E 153°25'0 0.0
2018-Mar-02 01:00S 27°48' E 153°25'0 0.0
2018-Mar-02 00:30S 27°48' E 153°25'1 2.1
2018-Mar-02 00:00S 27°47' E 153°24'2 4.0
2018-Mar-01 23:30S 27°46' E 153°22'2 4.6
2018-Mar-01 22:59S 27°44' E 153°21'2 4.6
2018-Mar-01 22:30S 27°42' E 153°22'3 5.6
2018-Mar-01 22:00S 27°39' E 153°21'4 4.4
2018-Mar-01 21:02S 27°35' E 153°20'0 5.5
2018-Mar-01 21:00S 27°35' E 153°20'0 0.1
2018-Mar-01 20:21S 27°35' E 153°20'0 0.0
2018-Mar-01 19:51S 27°35' E 153°20'0 0.0
2018-Mar-01 19:21S 27°35' E 153°20'0 0.0
2018-Mar-01 17:18S 27°35' E 153°20'0 0.0
2018-Mar-01 16:48S 27°35' E 153°20'0 0.0
2018-Mar-01 16:30S 27°35' E 153°20'0 0.0
2018-Mar-01 16:00S 27°35' E 153°20'0 0.0
2018-Mar-01 15:27S 27°35' E 153°20'0 0.0
2018-Mar-01 14:45S 27°35' E 153°20'0 0.0
2018-Mar-01 14:15S 27°35' E 153°20'0 0.0
2018-Mar-01 12:04S 27°35' E 153°20'0 0.0
2018-Mar-01 11:46S 27°35' E 153°20'0 0.0
2018-Mar-01 11:22S 27°35' E 153°20'0 0.0
2018-Mar-01 11:01S 27°35' E 153°20'0 0.0
2018-Mar-01 10:28S 27°35' E 153°20'0 0.0
2018-Mar-01 09:49S 27°35' E 153°20'0 0.0
2018-Mar-01 09:28S 27°35' E 153°20'0 0.0
2018-Mar-01 08:55S 27°35' E 153°20'0 0.0
2018-Mar-01 08:28S 27°35' E 153°20'0 0.0
2018-Mar-01 07:58S 27°35' E 153°20'0 0.0
2018-Mar-01 07:28S 27°35' E 153°20'0 0.0
2018-Mar-01 06:46S 27°35' E 153°20'0 0.0
2018-Mar-01 03:01S 27°35' E 153°20'0 3.6
2018-Mar-01 03:00S 27°35' E 153°20'21 4.8
2018-Feb-28 22:44S 27°16' E 153°11'1 5.3
2018-Feb-28 22:29S 27°15' E 153°10'3 5.6
2018-Feb-28 22:00S 27°12' E 153°09'2 4.5
2018-Feb-28 21:30S 27°11' E 153°06'0 0.7
2018-Feb-28 20:58S 27°12' E 153°06'0 0.0
2018-Feb-28 20:28S 27°12' E 153°06'0 0.0
2018-Feb-28 19:58S 27°12' E 153°06'0 0.0
2018-Feb-28 19:28S 27°12' E 153°06'0 0.0
2018-Feb-28 18:58S 27°12' E 153°06'0 0.0
2018-Feb-28 18:28S 27°12' E 153°06'0 0.0
2018-Feb-28 17:58S 27°12' E 153°06'0 0.0
2018-Feb-28 17:28S 27°12' E 153°06'0 0.0
2018-Feb-28 16:58S 27°12' E 153°06'0 0.0
2018-Feb-28 16:28S 27°12' E 153°06'0 0.0
2018-Feb-28 15:58S 27°12' E 153°06'0 0.0
2018-Feb-28 15:28S 27°12' E 153°06'0 0.0
2018-Feb-28 14:58S 27°12' E 153°06'0 0.0
2018-Feb-28 14:28S 27°12' E 153°06'0 0.0
2018-Feb-28 13:58S 27°12' E 153°06'0 0.0
2018-Feb-28 13:28S 27°12' E 153°06'0 0.0
2018-Feb-28 12:58S 27°12' E 153°06'0 0.0
2018-Feb-28 12:28S 27°12' E 153°06'0 0.0
2018-Feb-28 11:58S 27°12' E 153°06'0 0.0
2018-Feb-28 11:28S 27°12' E 153°06'0 0.0
2018-Feb-28 10:58S 27°12' E 153°06'0 0.1
2018-Feb-28 10:28S 27°12' E 153°06'0 0.1
2018-Feb-28 09:58S 27°12' E 153°06'0 0.0
2018-Feb-28 09:28S 27°12' E 153°06'0 0.0
2018-Feb-28 08:58S 27°12' E 153°06'0 0.0
2018-Feb-28 08:28S 27°12' E 153°06'0 0.0
2018-Feb-28 07:58S 27°12' E 153°06'0 0.0
2018-Feb-28 07:28S 27°12' E 153°06'0 0.0
2018-Feb-28 06:58S 27°12' E 153°06'0 0.0
2018-Feb-28 06:28S 27°12' E 153°06'0 0.0
2018-Feb-28 05:58S 27°12' E 153°06'0 0.0
2018-Feb-28 05:28S 27°12' E 153°06'0 0.0
2018-Feb-28 04:58S 27°12' E 153°06'0 0.0
2018-Feb-28 04:28S 27°12' E 153°06'0 0.0
2018-Feb-28 03:58S 27°12' E 153°06'0 0.0
2018-Feb-28 03:28S 27°12' E 153°06'0 0.0
2018-Feb-28 02:58S 27°12' E 153°06'0 0.0
2018-Feb-28 02:28S 27°12' E 153°06'0 0.0
2018-Feb-28 01:58S 27°12' E 153°06'0 0.0
2018-Feb-28 01:28S 27°12' E 153°06'0 0.0
2018-Feb-28 00:58S 27°12' E 153°06'0 0.0
2018-Feb-28 00:28S 27°12' E 153°06'0 0.0
2018-Feb-27 23:58S 27°12' E 153°06'0 0.0
2018-Feb-27 23:28S 27°12' E 153°06'0 0.0
2018-Feb-27 22:58S 27°12' E 153°06'0 0.0
2018-Feb-27 22:28S 27°12' E 153°06'0 0.0
2018-Feb-27 21:58S 27°12' E 153°06'0 0.1
2018-Feb-27 21:28S 27°12' E 153°06'0 0.1
2018-Feb-27 20:58S 27°12' E 153°06'0 0.0
2018-Feb-27 20:28S 27°12' E 153°06'0 0.0
2018-Feb-27 19:58S 27°12' E 153°06'0 0.0
2018-Feb-27 19:28S 27°12' E 153°06'0 0.0
2018-Feb-27 18:58S 27°12' E 153°06'0 0.0
2018-Feb-27 18:28S 27°12' E 153°06'0 0.0
2018-Feb-27 17:58S 27°12' E 153°06'0 0.0
2018-Feb-27 17:28S 27°12' E 153°06'0 0.0
2018-Feb-27 16:58S 27°12' E 153°06'0 0.0
2018-Feb-27 16:28S 27°12' E 153°06'0 0.0
2018-Feb-27 15:58S 27°12' E 153°06'0 0.0
2018-Feb-27 15:28S 27°12' E 153°06'0 0.0
2018-Feb-27 14:58S 27°12' E 153°06'0 0.0
2018-Feb-27 14:28S 27°12' E 153°06'0 0.0
2018-Feb-27 13:58S 27°12' E 153°06'0 0.0
2018-Feb-27 13:28S 27°12' E 153°06'0 0.0
2018-Feb-27 12:58S 27°12' E 153°06'0 0.0
2018-Feb-27 12:28S 27°12' E 153°06'0 0.0
2018-Feb-27 11:58S 27°12' E 153°06'0 0.0
2018-Feb-27 11:28S 27°12' E 153°06'0 0.0
2018-Feb-27 10:58S 27°12' E 153°06'0 0.0
2018-Feb-27 10:28S 27°12' E 153°06'0 0.0
2018-Feb-27 09:58S 27°12' E 153°06'0 0.0
2018-Feb-27 09:28S 27°12' E 153°06'0 0.0
2018-Feb-27 08:58S 27°12' E 153°06'0 0.0
2018-Feb-27 08:28S 27°12' E 153°06'0 0.0
2018-Feb-27 07:58S 27°12' E 153°06'0 0.0
2018-Feb-27 07:28S 27°12' E 153°06'0 0.0
2018-Feb-27 06:58S 27°12' E 153°06'0 0.0
2018-Feb-27 06:28S 27°12' E 153°06'0 0.0
2018-Feb-27 05:55S 27°12' E 153°06'0 0.0
2018-Feb-27 05:28S 27°12' E 153°06'0 0.0
2018-Feb-27 04:58S 27°12' E 153°06'0 0.0
2018-Feb-27 04:28S 27°12' E 153°06'0 0.0
2018-Feb-27 03:58S 27°12' E 153°06'0 0.0
2018-Feb-27 03:28S 27°12' E 153°06'0 0.0
2018-Feb-27 02:58S 27°12' E 153°06'0 0.0
2018-Feb-27 02:28S 27°12' E 153°06'0 0.0
2018-Feb-27 01:58S 27°12' E 153°06'0 0.0
2018-Feb-27 01:28S 27°12' E 153°06'0 0.0
2018-Feb-27 00:58S 27°12' E 153°06'0 0.0
2018-Feb-27 00:28S 27°12' E 153°06'0 0.0
2018-Feb-26 23:58S 27°12' E 153°06'0 0.0
2018-Feb-26 23:28S 27°12' E 153°06'0 0.0
2018-Feb-26 22:58S 27°12' E 153°06'0 0.0
2018-Feb-26 22:28S 27°12' E 153°06'0 0.0
2018-Feb-26 21:58S 27°12' E 153°06'0 0.0
2018-Feb-26 21:28S 27°12' E 153°06'0 0.0
2018-Feb-26 20:58S 27°12' E 153°06'0 0.0
2018-Feb-26 20:28S 27°12' E 153°06'0 0.0
2018-Feb-26 19:58S 27°12' E 153°06'0 0.0
2018-Feb-26 19:28S 27°12' E 153°06'0 0.0
2018-Feb-26 18:58S 27°12' E 153°06'0 0.0
2018-Feb-26 18:28S 27°12' E 153°06'0 0.0
2018-Feb-26 17:58S 27°12' E 153°06'0 0.0
2018-Feb-26 17:28S 27°12' E 153°06'0 0.0
2018-Feb-26 16:58S 27°12' E 153°06'0 0.0
2018-Feb-26 16:22S 27°12' E 153°06'0 0.0
2018-Feb-26 15:58S 27°12' E 153°06'0 0.0
2018-Feb-26 15:29S 27°12' E 153°06'0 0.0
2018-Feb-26 14:58S 27°12' E 153°06'0 0.0
2018-Feb-26 14:28S 27°12' E 153°06'0 0.0
2018-Feb-26 13:58S 27°12' E 153°06'0 0.0
2018-Feb-26 13:29S 27°12' E 153°06'0 0.0
2018-Feb-26 12:55S 27°12' E 153°06'0 0.0
2018-Feb-26 12:28S 27°12' E 153°06'0 0.0
2018-Feb-26 11:55S 27°12' E 153°06'0 0.0
2018-Feb-26 11:25S 27°12' E 153°06'0 0.0
2018-Feb-26 10:16S 27°12' E 153°06'0 0.0
2018-Feb-26 09:53S 27°12' E 153°06'0 0.0
2018-Feb-26 08:17S 27°12' E 153°06'0 0.0
2018-Feb-26 07:56S 27°12' E 153°06'0 0.0
2018-Feb-26 07:17S 27°12' E 153°06'0 0.0
2018-Feb-26 06:59S 27°12' E 153°06'0 0.0
2018-Feb-26 06:23S 27°12' E 153°06'0 0.0
2018-Feb-26 05:59S 27°12' E 153°06'0 0.0
2018-Feb-26 05:29S 27°12' E 153°06'0 0.0
2018-Feb-26 04:59S 27°12' E 153°06'0 0.0
2018-Feb-26 04:29S 27°12' E 153°06'0 0.0
2018-Feb-26 03:56S 27°12' E 153°06'0 0.0
2018-Feb-26 03:29S 27°12' E 153°06'0 0.0
2018-Feb-26 02:59S 27°12' E 153°06'0 0.0
2018-Feb-26 02:29S 27°12' E 153°06'0 0.0
2018-Feb-26 01:59S 27°12' E 153°06'0 0.0
2018-Feb-26 01:29S 27°12' E 153°06'0 0.0
2018-Feb-26 00:56S 27°12' E 153°06'0 0.0
2018-Feb-26 00:23S 27°12' E 153°06'0 0.0
2018-Feb-25 23:32S 27°12' E 153°06'0 0.0
2018-Feb-25 23:29S 27°12' E 153°06'0 0.0
2018-Feb-25 22:53S 27°12' E 153°06'0 0.0
2018-Feb-25 22:26S 27°12' E 153°06'0 0.0
2018-Feb-25 21:53S 27°12' E 153°06'0 0.0
2018-Feb-25 21:14S 27°12' E 153°06'0 0.0
2018-Feb-25 20:56S 27°12' E 153°06'0 0.0
2018-Feb-25 20:05S 27°12' E 153°06'0 0.0
2018-Feb-25 19:59S 27°12' E 153°06'0 0.0
2018-Feb-25 19:29S 27°12' E 153°06'0 0.0
2018-Feb-25 18:59S 27°12' E 153°06'0 0.0
2018-Feb-25 18:29S 27°12' E 153°06'0 0.0
2018-Feb-25 17:59S 27°12' E 153°06'0 0.0
2018-Feb-25 17:29S 27°12' E 153°06'0 0.0
2018-Feb-25 16:59S 27°12' E 153°06'0 0.0
2018-Feb-25 16:29S 27°12' E 153°06'0 0.0
2018-Feb-25 15:59S 27°12' E 153°06'0 0.0
2018-Feb-25 15:29S 27°12' E 153°06'0 0.0
2018-Feb-25 14:59S 27°12' E 153°06'0 0.0
2018-Feb-25 14:29S 27°12' E 153°06'0 0.0
2018-Feb-25 13:59S 27°12' E 153°06'0 0.0
2018-Feb-25 13:29S 27°12' E 153°06'0 0.0
2018-Feb-25 12:59S 27°12' E 153°06'0 0.1
2018-Feb-25 12:29S 27°12' E 153°06'0 0.1
2018-Feb-25 11:59S 27°12' E 153°06'0 0.0
2018-Feb-25 11:29S 27°12' E 153°06'0 0.0
2018-Feb-25 10:59S 27°12' E 153°06'0 0.0
2018-Feb-25 10:29S 27°12' E 153°06'0 0.0
2018-Feb-25 09:59S 27°12' E 153°06'0 0.0
2018-Feb-25 09:29S 27°12' E 153°06'0 0.0
2018-Feb-25 08:59S 27°12' E 153°06'0 0.0
2018-Feb-25 08:29S 27°12' E 153°06'0 0.0
2018-Feb-25 07:59S 27°12' E 153°06'0 0.0
2018-Feb-25 07:29S 27°12' E 153°06'0 0.0
2018-Feb-25 06:59S 27°12' E 153°06'0 0.0
2018-Feb-25 06:29S 27°12' E 153°06'0 0.0
2018-Feb-25 05:59S 27°12' E 153°06'0 0.0
2018-Feb-25 05:29S 27°12' E 153°06'0 0.0
2018-Feb-25 04:59S 27°12' E 153°06'0 0.0
2018-Feb-25 04:29S 27°12' E 153°06'0 0.0
2018-Feb-25 03:59S 27°12' E 153°06'0 0.0
2018-Feb-25 03:29S 27°12' E 153°06'0 0.0
2018-Feb-25 02:59S 27°12' E 153°06'0 0.0
2018-Feb-25 02:29S 27°12' E 153°06'0 0.0
2018-Feb-25 01:59S 27°12' E 153°06'0 0.0
2018-Feb-25 01:29S 27°12' E 153°06'0 0.0
2018-Feb-25 00:59S 27°12' E 153°06'0 0.0
2018-Feb-25 00:29S 27°12' E 153°06'0 0.0
2018-Feb-24 23:59S 27°12' E 153°06'0 0.0
2018-Feb-24 23:29S 27°12' E 153°06'0 0.0
2018-Feb-24 22:59S 27°12' E 153°06'0 0.0
2018-Feb-24 22:29S 27°12' E 153°06'0 0.0
2018-Feb-24 21:59S 27°12' E 153°06'0 0.0
2018-Feb-24 21:29S 27°12' E 153°06'0 0.0
2018-Feb-24 20:59S 27°12' E 153°06'0 0.0
2018-Feb-24 20:29S 27°12' E 153°06'0 0.0
2018-Feb-24 19:59S 27°12' E 153°06'0 0.0
2018-Feb-24 19:29S 27°12' E 153°06'0 0.0
2018-Feb-24 18:59S 27°12' E 153°06'0 0.0
2018-Feb-24 18:29S 27°12' E 153°06'0 0.0
2018-Feb-24 17:59S 27°12' E 153°06'0 0.0
2018-Feb-24 17:29S 27°12' E 153°06'0 0.0
2018-Feb-24 16:59S 27°12' E 153°06'0 0.0
2018-Feb-24 16:29S 27°12' E 153°06'0 0.0
2018-Feb-24 15:59S 27°12' E 153°06'0 0.0
2018-Feb-24 15:29S 27°12' E 153°06'0 0.0
2018-Feb-24 14:59S 27°12' E 153°06'0 0.0
2018-Feb-24 14:29S 27°12' E 153°06'0 0.0
2018-Feb-24 13:59S 27°12' E 153°06'0 0.0
2018-Feb-24 13:29S 27°12' E 153°06'0 0.0
2018-Feb-24 12:59S 27°12' E 153°06'0 0.0
2018-Feb-24 12:29S 27°12' E 153°06'0 0.0
2018-Feb-24 11:59S 27°12' E 153°06'0 0.0
2018-Feb-24 11:29S 27°12' E 153°06'0 0.0
2018-Feb-24 10:59S 27°12' E 153°06'0 0.0
2018-Feb-24 10:29S 27°12' E 153°06'0 0.0
2018-Feb-24 09:59S 27°12' E 153°06'0 0.0
2018-Feb-24 09:29S 27°12' E 153°06'0 0.0
2018-Feb-24 08:59S 27°12' E 153°06'0 0.0
2018-Feb-24 08:29S 27°12' E 153°06'0 0.0
2018-Feb-24 07:59S 27°12' E 153°06'0 0.0
2018-Feb-24 07:29S 27°12' E 153°06'0 0.0
2018-Feb-24 06:59S 27°12' E 153°06'0 0.0
2018-Feb-24 06:29S 27°12' E 153°06'0 0.0
2018-Feb-24 05:59S 27°12' E 153°06'0 0.0
2018-Feb-24 05:29S 27°12' E 153°06'0 0.0
2018-Feb-24 04:59S 27°12' E 153°06'0 0.0
2018-Feb-24 02:53S 27°12' E 153°06'0 0.0
2018-Feb-24 02:29S 27°12' E 153°06'0 0.0
2018-Feb-24 01:59S 27°12' E 153°06'0 0.0
2018-Feb-24 01:29S 27°12' E 153°06'0 0.0
2018-Feb-24 00:59S 27°12' E 153°06'0 0.0
2018-Feb-24 00:29S 27°12' E 153°06'0 0.0
2018-Feb-23 23:59S 27°12' E 153°06'0 0.0
2018-Feb-23 23:29S 27°12' E 153°06'0 0.0
2018-Feb-23 22:59S 27°12' E 153°06'0 0.0
2018-Feb-23 22:29S 27°12' E 153°06'0 0.0
2018-Feb-23 21:59S 27°12' E 153°06'0 0.0
2018-Feb-23 21:23S 27°12' E 153°06'0 0.0
2018-Feb-23 20:59S 27°12' E 153°06'0 0.0
2018-Feb-23 20:29S 27°12' E 153°06'0 0.0
2018-Feb-23 18:59S 27°12' E 153°06'0 0.0
2018-Feb-23 18:29S 27°12' E 153°06'0 0.0
2018-Feb-23 17:59S 27°12' E 153°06'0 0.0
2018-Feb-23 17:29S 27°12' E 153°06'0 0.0
2018-Feb-23 16:59S 27°12' E 153°06'0 0.0
2018-Feb-23 16:26S 27°12' E 153°06'0 0.0
2018-Feb-23 15:59S 27°12' E 153°06'0 0.0
2018-Feb-23 15:29S 27°12' E 153°06'0 0.0
2018-Feb-23 14:59S 27°12' E 153°06'0 0.0
2018-Feb-23 14:29S 27°12' E 153°06'0 0.0
2018-Feb-23 13:59S 27°12' E 153°06'0 0.0
2018-Feb-23 13:29S 27°12' E 153°06'0 0.0
2018-Feb-23 12:59S 27°12' E 153°06'0 0.0
2018-Feb-23 12:23S 27°12' E 153°06'0 0.0
2018-Feb-23 11:59S 27°12' E 153°06'0 0.0
2018-Feb-23 11:29S 27°12' E 153°06'0 0.0
2018-Feb-23 10:59S 27°12' E 153°06'0 0.0
2018-Feb-23 10:29S 27°12' E 153°06'0 0.0
2018-Feb-23 09:59S 27°12' E 153°06'0 0.0
2018-Feb-23 09:29S 27°12' E 153°06'0 0.0
2018-Feb-23 08:59S 27°12' E 153°06'0 0.0
2018-Feb-23 08:29S 27°12' E 153°06'0 0.0
2018-Feb-23 07:59S 27°12' E 153°06'0 0.0
2018-Feb-23 07:29S 27°12' E 153°06'0 0.0
2018-Feb-23 06:59S 27°12' E 153°06'0 0.0
2018-Feb-23 06:29S 27°12' E 153°06'0 0.0
2018-Feb-23 05:59S 27°12' E 153°06'0 0.0
2018-Feb-23 05:29S 27°12' E 153°06'0 0.0
2018-Feb-23 04:59S 27°12' E 153°06'0 0.0
2018-Feb-23 04:29S 27°12' E 153°06'0 0.0
2018-Feb-23 03:59S 27°12' E 153°06'0 0.0
2018-Feb-23 03:29S 27°12' E 153°06'0 0.0
2018-Feb-23 02:59S 27°12' E 153°06'0 0.0
2018-Feb-23 02:29S 27°12' E 153°06'0 0.0
2018-Feb-23 01:56S 27°12' E 153°06'0 0.0
2018-Feb-23 01:29S 27°12' E 153°06'0 0.0
2018-Feb-23 00:59S 27°12' E 153°06'0 0.0
2018-Feb-23 00:29S 27°12' E 153°06'0 0.0
2018-Feb-22 23:53S 27°12' E 153°06'0 0.0
2018-Feb-22 23:26S 27°12' E 153°06'0 0.0
2018-Feb-22 22:59S 27°12' E 153°06'0 0.0
2018-Feb-22 22:29S 27°12' E 153°06'0 0.0
2018-Feb-22 21:59S 27°12' E 153°06'0 0.0
2018-Feb-22 20:38S 27°12' E 153°06'0 0.0
2018-Feb-22 20:29S 27°12' E 153°06'0 0.0
2018-Feb-22 19:56S 27°12' E 153°06'0 0.0
2018-Feb-22 19:26S 27°12' E 153°06'0 0.0
2018-Feb-22 18:59S 27°12' E 153°06'0 0.0
2018-Feb-22 18:26S 27°12' E 153°06'0 0.0
2018-Feb-22 17:47S 27°12' E 153°06'0 0.0
2018-Feb-22 17:20S 27°12' E 153°06'0 0.0
2018-Feb-22 16:59S 27°12' E 153°06'0 0.0
2018-Feb-22 16:29S 27°12' E 153°06'0 0.0
2018-Feb-22 15:59S 27°12' E 153°06'0 0.0
2018-Feb-22 15:26S 27°12' E 153°06'0 0.0
2018-Feb-22 14:59S 27°12' E 153°06'0 0.0
2018-Feb-22 14:29S 27°12' E 153°06'0 0.0
2018-Feb-22 13:59S 27°12' E 153°06'0 0.0
2018-Feb-22 13:29S 27°12' E 153°06'0 0.0
2018-Feb-22 12:59S 27°12' E 153°06'0 0.0
2018-Feb-22 12:29S 27°12' E 153°06'0 0.0
2018-Feb-22 11:59S 27°12' E 153°06'0 0.0
2018-Feb-22 11:29S 27°12' E 153°06'0 0.0
2018-Feb-22 10:59S 27°12' E 153°06'0 0.0
2018-Feb-22 10:29S 27°12' E 153°06'0 0.0
2018-Feb-22 09:59S 27°12' E 153°06'0 0.0
2018-Feb-22 09:29S 27°12' E 153°06'0 0.0
2018-Feb-22 08:59S 27°12' E 153°06'0 0.0
2018-Feb-22 08:29S 27°12' E 153°06'0 0.0
2018-Feb-22 07:59S 27°12' E 153°06'0 0.0
2018-Feb-22 07:29S 27°12' E 153°06'0 0.0
2018-Feb-22 06:59S 27°12' E 153°06'0 0.0
2018-Feb-22 06:29S 27°12' E 153°06'0 0.0
2018-Feb-22 05:53S 27°12' E 153°06'0 0.0
2018-Feb-22 05:29S 27°12' E 153°06'0 0.0
2018-Feb-22 04:59S 27°12' E 153°06'0 0.0
2018-Feb-22 04:29S 27°12' E 153°06'0 0.0
2018-Feb-22 03:53S 27°12' E 153°06'0 0.0
2018-Feb-22 03:29S 27°12' E 153°06'0 0.0
2018-Feb-22 02:59S 27°12' E 153°06'0 0.0
2018-Feb-22 02:29S 27°12' E 153°06'0 0.0
2018-Feb-22 01:59S 27°12' E 153°06'0 0.0
2018-Feb-22 01:29S 27°12' E 153°06'0 0.0
2018-Feb-22 00:59S 27°12' E 153°06'0 0.0
2018-Feb-22 00:29S 27°12' E 153°06'  

Dump ship's entire track history